sensor_id;sensor_type;location;lat;lon;timestamp;temperature;humidity
3478;DHT22;37937;61.490;23.506;2023-10-09T00:00:07;-0.50;99.90
3478;DHT22;37937;61.490;23.506;2023-10-09T00:03:04;-0.50;99.90
3478;DHT22;37937;61.490;23.506;2023-10-09T00:05:30;-0.50;99.90
3478;DHT22;37937;61.490;23.506;2023-10-09T00:08:25;-0.50;99.90
3478;DHT22;37937;61.490;23.506;2023-10-09T00:10:57;-0.50;99.90
3478;DHT22;37937;61.490;23.506;2023-10-09T00:13:23;-0.50;99.90
3478;DHT22;37937;61.490;23.506;2023-10-09T00:16:03;-0.60;99.90
3478;DHT22;37937;61.490;23.506;2023-10-09T00:18:34;-0.60;99.90
3478;DHT22;37937;61.490;23.506;2023-10-09T00:21:00;-0.60;99.90
3478;DHT22;37937;61.490;23.506;2023-10-09T00:23:38;-0.60;99.90
3478;DHT22;37937;61.490;23.506;2023-10-09T00:26:03;-0.60;99.90
3478;DHT22;37937;61.490;23.506;2023-10-09T00:28:36;-0.50;99.90
3478;DHT22;37937;61.490;23.506;2023-10-09T00:31:03;-0.50;99.90
3478;DHT22;37937;61.490;23.506;2023-10-09T00:33:33;-0.60;99.90
3478;DHT22;37937;61.490;23.506;2023-10-09T00:36:17;-0.60;99.90
3478;DHT22;37937;61.490;23.506;2023-10-09T00:39:04;-0.60;99.90
3478;DHT22;37937;61.490;23.506;2023-10-09T00:41:43;-0.60;99.90
3478;DHT22;37937;61.490;23.506;2023-10-09T00:44:09;-0.60;99.90
3478;DHT22;37937;61.490;23.506;2023-10-09T00:46:51;-0.60;99.90
3478;DHT22;37937;61.490;23.506;2023-10-09T00:49:17;-0.60;99.90
3478;DHT22;37937;61.490;23.506;2023-10-09T00:54:51;-0.70;99.90
3478;DHT22;37937;61.490;23.506;2023-10-09T00:57:19;-0.70;99.90
3478;DHT22;37937;61.490;23.506;2023-10-09T00:59:54;-0.60;99.90
3478;DHT22;37937;61.490;23.506;2023-10-09T01:02:26;-0.70;99.90
3478;DHT22;37937;61.490;23.506;2023-10-09T01:05:03;-0.70;99.90
3478;DHT22;37937;61.490;23.506;2023-10-09T01:07:45;-0.70;99.90
3478;DHT22;37937;61.490;23.506;2023-10-09T01:10:17;-0.70;99.90
3478;DHT22;37937;61.490;23.506;2023-10-09T01:12:43;-0.70;99.90
3478;DHT22;37937;61.490;23.506;2023-10-09T01:15:11;-0.60;99.90
3478;DHT22;37937;61.490;23.506;2023-10-09T01:17:55;-0.60;99.90
3478;DHT22;37937;61.490;23.506;2023-10-09T01:20:22;-0.60;99.90
3478;DHT22;37937;61.490;23.506;2023-10-09T01:22:53;-0.60;99.90
3478;DHT22;37937;61.490;23.506;2023-10-09T01:25:18;-0.60;99.90
3478;DHT22;37937;61.490;23.506;2023-10-09T01:27:46;-0.50;99.90
3478;DHT22;37937;61.490;23.506;2023-10-09T01:30:11;-0.50;99.90
3478;DHT22;37937;61.490;23.506;2023-10-09T01:32:39;-0.60;99.90
3478;DHT22;37937;61.490;23.506;2023-10-09T01:38:11;-0.50;99.90
3478;DHT22;37937;61.490;23.506;2023-10-09T01:40:39;-0.40;99.90
3478;DHT22;37937;61.490;23.506;2023-10-09T01:43:05;-0.40;99.90
3478;DHT22;37937;61.490;23.506;2023-10-09T01:45:35;-0.30;99.90
3478;DHT22;37937;61.490;23.506;2023-10-09T01:48:07;-0.20;99.90
3478;DHT22;37937;61.490;23.506;2023-10-09T01:50:33;-0.20;99.90
3478;DHT22;37937;61.490;23.506;2023-10-09T01:53:01;-0.20;99.90
3478;DHT22;37937;61.490;23.506;2023-10-09T01:55:30;-0.20;99.90
3478;DHT22;37937;61.490;23.506;2023-10-09T01:58:15;-0.20;99.90
3478;DHT22;37937;61.490;23.506;2023-10-09T02:00:46;-0.20;99.90
3478;DHT22;37937;61.490;23.506;2023-10-09T02:03:20;-0.10;99.90
3478;DHT22;37937;61.490;23.506;2023-10-09T02:05:51;-0.20;99.90
3478;DHT22;37937;61.490;23.506;2023-10-09T02:08:31;-0.20;99.90
3478;DHT22;37937;61.490;23.506;2023-10-09T02:11:01;-0.10;99.90
3478;DHT22;37937;61.490;23.506;2023-10-09T02:13:27;-0.10;99.90
3478;DHT22;37937;61.490;23.506;2023-10-09T02:16:00;-0.10;99.90
3478;DHT22;37937;61.490;23.506;2023-10-09T02:18:41;-0.20;99.90
3478;DHT22;37937;61.490;23.506;2023-10-09T02:21:19;-0.20;99.90
3478;DHT22;37937;61.490;23.506;2023-10-09T02:23:58;-0.20;99.90
3478;DHT22;37937;61.490;23.506;2023-10-09T02:26:28;-0.20;99.90
3478;DHT22;37937;61.490;23.506;2023-10-09T02:29:11;-0.20;99.90
3478;DHT22;37937;61.490;23.506;2023-10-09T02:31:44;-0.20;99.90
3478;DHT22;37937;61.490;23.506;2023-10-09T02:34:17;-0.20;99.90
3478;DHT22;37937;61.490;23.506;2023-10-09T02:36:46;-0.10;99.90
3478;DHT22;37937;61.490;23.506;2023-10-09T02:39:25;-0.10;99.90
3478;DHT22;37937;61.490;23.506;2023-10-09T02:44:53;-0.10;99.90
3478;DHT22;37937;61.490;23.506;2023-10-09T02:47:20;-0.20;99.90
3478;DHT22;37937;61.490;23.506;2023-10-09T02:49:49;-0.20;99.90
3478;DHT22;37937;61.490;23.506;2023-10-09T02:52:16;-0.10;99.90
3478;DHT22;37937;61.490;23.506;2023-10-09T02:54:47;-0.10;99.90
3478;DHT22;37937;61.490;23.506;2023-10-09T02:57:13;0.00;99.90
3478;DHT22;37937;61.490;23.506;2023-10-09T03:00:04;0.00;99.90
3478;DHT22;37937;61.490;23.506;2023-10-09T03:02:34;0.00;99.90
3478;DHT22;37937;61.490;23.506;2023-10-09T03:05:01;0.00;99.90
3478;DHT22;37937;61.490;23.506;2023-10-09T03:07:28;0.00;99.90
3478;DHT22;37937;61.490;23.506;2023-10-09T03:09:54;0.00;99.90
3478;DHT22;37937;61.490;23.506;2023-10-09T03:12:20;0.00;99.90
3478;DHT22;37937;61.490;23.506;2023-10-09T03:14:51;0.10;99.90
3478;DHT22;37937;61.490;23.506;2023-10-09T03:17:29;0.00;99.90
3478;DHT22;37937;61.490;23.506;2023-10-09T03:19:55;0.10;99.90
3478;DHT22;37937;61.490;23.506;2023-10-09T03:22:20;0.10;99.90
3478;DHT22;37937;61.490;23.506;2023-10-09T03:24:46;0.10;99.90
3478;DHT22;37937;61.490;23.506;2023-10-09T03:27:14;0.20;99.90
3478;DHT22;37937;61.490;23.506;2023-10-09T03:29:41;0.20;99.90
3478;DHT22;37937;61.490;23.506;2023-10-09T03:32:07;0.20;99.90
3478;DHT22;37937;61.490;23.506;2023-10-09T03:34:34;0.20;99.90
3478;DHT22;37937;61.490;23.506;2023-10-09T03:36:59;0.30;99.90
3478;DHT22;37937;61.490;23.506;2023-10-09T03:39:45;0.30;99.90
3478;DHT22;37937;61.490;23.506;2023-10-09T03:42:12;0.30;99.90
3478;DHT22;37937;61.490;23.506;2023-10-09T03:44:45;0.40;99.90
3478;DHT22;37937;61.490;23.506;2023-10-09T03:47:15;0.40;99.90
3478;DHT22;37937;61.490;23.506;2023-10-09T03:49:57;0.50;99.90
3478;DHT22;37937;61.490;23.506;2023-10-09T03:52:39;0.50;99.90
3478;DHT22;37937;61.490;23.506;2023-10-09T03:55:07;0.60;99.90
3478;DHT22;37937;61.490;23.506;2023-10-09T03:57:40;0.60;99.90
3478;DHT22;37937;61.490;23.506;2023-10-09T04:03:10;0.70;99.90
3478;DHT22;37937;61.490;23.506;2023-10-09T04:05:37;0.80;99.90
3478;DHT22;37937;61.490;23.506;2023-10-09T04:11:14;0.80;99.90
3478;DHT22;37937;61.490;23.506;2023-10-09T04:13:48;0.90;99.90
3478;DHT22;37937;61.490;23.506;2023-10-09T04:16:28;0.90;99.90
3478;DHT22;37937;61.490;23.506;2023-10-09T04:22:15;0.90;99.90
3478;DHT22;37937;61.490;23.506;2023-10-09T04:27:58;1.00;99.90
3478;DHT22;37937;61.490;23.506;2023-10-09T04:30:42;1.00;99.90
3478;DHT22;37937;61.490;23.506;2023-10-09T04:33:08;1.00;99.90
3478;DHT22;37937;61.490;23.506;2023-10-09T04:36:06;1.10;99.90
3478;DHT22;37937;61.490;23.506;2023-10-09T04:38:47;1.10;99.90
3478;DHT22;37937;61.490;23.506;2023-10-09T04:41:54;1.10;99.90
3478;DHT22;37937;61.490;23.506;2023-10-09T04:44:53;1.10;99.90
3478;DHT22;37937;61.490;23.506;2023-10-09T04:47:27;1.10;99.90
3478;DHT22;37937;61.490;23.506;2023-10-09T04:50:03;1.10;99.90
3478;DHT22;37937;61.490;23.506;2023-10-09T04:52:37;1.10;99.90
3478;DHT22;37937;61.490;23.506;2023-10-09T04:55:03;1.10;99.90
3478;DHT22;37937;61.490;23.506;2023-10-09T04:57:39;1.10;99.90
3478;DHT22;37937;61.490;23.506;2023-10-09T05:00:18;1.10;99.90
3478;DHT22;37937;61.490;23.506;2023-10-09T05:02:57;1.10;99.90
3478;DHT22;37937;61.490;23.506;2023-10-09T05:05:25;1.10;99.90
3478;DHT22;37937;61.490;23.506;2023-10-09T05:08:14;1.10;99.90
3478;DHT22;37937;61.490;23.506;2023-10-09T05:11:02;1.10;99.90
3478;DHT22;37937;61.490;23.506;2023-10-09T05:16:06;1.10;99.90
3478;DHT22;37937;61.490;23.506;2023-10-09T05:18:44;1.10;99.90
3478;DHT22;37937;61.490;23.506;2023-10-09T05:21:12;1.10;99.90
3478;DHT22;37937;61.490;23.506;2023-10-09T05:23:37;1.10;99.90
3478;DHT22;37937;61.490;23.506;2023-10-09T05:26:09;1.10;99.90
3478;DHT22;37937;61.490;23.506;2023-10-09T05:32:04;1.10;99.90
3478;DHT22;37937;61.490;23.506;2023-10-09T05:34:42;1.20;99.90
3478;DHT22;37937;61.490;23.506;2023-10-09T05:37:27;1.10;99.90
3478;DHT22;37937;61.490;23.506;2023-10-09T05:39:58;1.20;99.90
3478;DHT22;37937;61.490;23.506;2023-10-09T05:42:30;1.20;99.90
3478;DHT22;37937;61.490;23.506;2023-10-09T05:45:05;1.20;99.90
3478;DHT22;37937;61.490;23.506;2023-10-09T05:47:43;1.10;99.90
3478;DHT22;37937;61.490;23.506;2023-10-09T05:50:27;1.20;99.90
3478;DHT22;37937;61.490;23.506;2023-10-09T05:52:53;1.20;99.90
3478;DHT22;37937;61.490;23.506;2023-10-09T05:55:26;1.10;99.90
3478;DHT22;37937;61.490;23.506;2023-10-09T05:58:13;1.10;99.90
3478;DHT22;37937;61.490;23.506;2023-10-09T06:00:57;1.10;99.90
3478;DHT22;37937;61.490;23.506;2023-10-09T06:03:41;1.20;99.90
3478;DHT22;37937;61.490;23.506;2023-10-09T06:06:22;1.20;99.90
3478;DHT22;37937;61.490;23.506;2023-10-09T06:09:14;1.20;99.90
3478;DHT22;37937;61.490;23.506;2023-10-09T06:11:40;1.30;99.90
3478;DHT22;37937;61.490;23.506;2023-10-09T06:16:54;1.40;99.90
3478;DHT22;37937;61.490;23.506;2023-10-09T06:19:23;1.50;99.90
3478;DHT22;37937;61.490;23.506;2023-10-09T06:21:48;1.50;99.90
3478;DHT22;37937;61.490;23.506;2023-10-09T06:24:17;1.60;99.90
3478;DHT22;37937;61.490;23.506;2023-10-09T06:26:45;1.70;99.90
3478;DHT22;37937;61.490;23.506;2023-10-09T06:29:19;1.70;99.90
3478;DHT22;37937;61.490;23.506;2023-10-09T06:35:10;1.80;99.90
3478;DHT22;37937;61.490;23.506;2023-10-09T06:37:50;1.80;99.90
3478;DHT22;37937;61.490;23.506;2023-10-09T06:43:05;1.90;99.90
3478;DHT22;37937;61.490;23.506;2023-10-09T06:45:57;2.00;99.90
3478;DHT22;37937;61.490;23.506;2023-10-09T06:48:41;2.00;99.90
3478;DHT22;37937;61.490;23.506;2023-10-09T06:51:22;2.00;99.90
3478;DHT22;37937;61.490;23.506;2023-10-09T06:53:51;2.00;99.90
3478;DHT22;37937;61.490;23.506;2023-10-09T06:59:08;2.10;99.90
3478;DHT22;37937;61.490;23.506;2023-10-09T07:01:50;2.10;99.90
3478;DHT22;37937;61.490;23.506;2023-10-09T07:04:34;2.10;99.90
3478;DHT22;37937;61.490;23.506;2023-10-09T07:07:00;2.20;99.90
3478;DHT22;37937;61.490;23.506;2023-10-09T07:09:38;2.20;99.90
3478;DHT22;37937;61.490;23.506;2023-10-09T07:12:22;2.30;99.90
3478;DHT22;37937;61.490;23.506;2023-10-09T07:14:52;2.40;99.90
3478;DHT22;37937;61.490;23.506;2023-10-09T07:17:21;2.50;99.90
3478;DHT22;37937;61.490;23.506;2023-10-09T07:20:11;2.60;99.90
3478;DHT22;37937;61.490;23.506;2023-10-09T07:26:03;2.60;99.90
3478;DHT22;37937;61.490;23.506;2023-10-09T07:28:44;2.60;99.90
3478;DHT22;37937;61.490;23.506;2023-10-09T07:31:17;2.60;99.90
3478;DHT22;37937;61.490;23.506;2023-10-09T07:33:50;2.70;99.90
3478;DHT22;37937;61.490;23.506;2023-10-09T07:36:25;2.70;99.90
3478;DHT22;37937;61.490;23.506;2023-10-09T07:39:05;2.70;99.90
3478;DHT22;37937;61.490;23.506;2023-10-09T07:41:49;2.80;99.90
3478;DHT22;37937;61.490;23.506;2023-10-09T07:44:27;2.80;99.90
3478;DHT22;37937;61.490;23.506;2023-10-09T07:47:02;2.80;99.90
3478;DHT22;37937;61.490;23.506;2023-10-09T07:49:48;2.80;99.90
3478;DHT22;37937;61.490;23.506;2023-10-09T07:52:17;2.90;99.90
3478;DHT22;37937;61.490;23.506;2023-10-09T07:54:43;2.90;99.90
3478;DHT22;37937;61.490;23.506;2023-10-09T07:57:28;3.00;99.90
3478;DHT22;37937;61.490;23.506;2023-10-09T08:00:03;3.20;99.90
3478;DHT22;37937;61.490;23.506;2023-10-09T08:03:07;3.20;99.90
3478;DHT22;37937;61.490;23.506;2023-10-09T08:05:52;3.30;99.90
3478;DHT22;37937;61.490;23.506;2023-10-09T08:08:52;3.40;99.90
3478;DHT22;37937;61.490;23.506;2023-10-09T08:11:41;3.50;99.90
3478;DHT22;37937;61.490;23.506;2023-10-09T08:14:10;3.60;99.90
3478;DHT22;37937;61.490;23.506;2023-10-09T08:16:55;3.80;99.90
3478;DHT22;37937;61.490;23.506;2023-10-09T08:19:39;3.90;99.90
3478;DHT22;37937;61.490;23.506;2023-10-09T08:22:21;4.00;99.90
3478;DHT22;37937;61.490;23.506;2023-10-09T08:24:50;4.10;99.90
3478;DHT22;37937;61.490;23.506;2023-10-09T08:27:25;4.30;99.90
3478;DHT22;37937;61.490;23.506;2023-10-09T08:32:40;4.10;99.90
3478;DHT22;37937;61.490;23.506;2023-10-09T08:35:29;4.10;99.90
3478;DHT22;37937;61.490;23.506;2023-10-09T08:38:19;4.30;99.90
3478;DHT22;37937;61.490;23.506;2023-10-09T08:41:05;4.40;99.90
3478;DHT22;37937;61.490;23.506;2023-10-09T08:43:35;4.60;99.90
3478;DHT22;37937;61.490;23.506;2023-10-09T08:46:06;4.70;99.90
3478;DHT22;37937;61.490;23.506;2023-10-09T08:48:32;4.60;99.90
3478;DHT22;37937;61.490;23.506;2023-10-09T08:50:58;4.60;99.90
3478;DHT22;37937;61.490;23.506;2023-10-09T08:53:47;4.70;99.90
3478;DHT22;37937;61.490;23.506;2023-10-09T08:56:17;4.80;99.90
3478;DHT22;37937;61.490;23.506;2023-10-09T08:58:52;5.00;99.90
3478;DHT22;37937;61.490;23.506;2023-10-09T09:01:20;5.10;99.90
3478;DHT22;37937;61.490;23.506;2023-10-09T09:03:50;5.40;99.90
3478;DHT22;37937;61.490;23.506;2023-10-09T09:06:22;5.60;99.90
3478;DHT22;37937;61.490;23.506;2023-10-09T09:08:49;5.50;99.90
3478;DHT22;37937;61.490;23.506;2023-10-09T09:16:54;5.80;99.90
3478;DHT22;37937;61.490;23.506;2023-10-09T09:19:30;6.00;99.90
3478;DHT22;37937;61.490;23.506;2023-10-09T09:21:57;6.00;99.90
3478;DHT22;37937;61.490;23.506;2023-10-09T09:24:36;6.20;99.90
3478;DHT22;37937;61.490;23.506;2023-10-09T09:30:38;6.30;99.90
3478;DHT22;37937;61.490;23.506;2023-10-09T09:33:23;6.30;99.90
3478;DHT22;37937;61.490;23.506;2023-10-09T09:35:58;6.50;99.90
3478;DHT22;37937;61.490;23.506;2023-10-09T09:38:39;6.30;99.90
3478;DHT22;37937;61.490;23.506;2023-10-09T09:41:13;5.90;99.90
3478;DHT22;37937;61.490;23.506;2023-10-09T09:43:56;5.70;99.90
3478;DHT22;37937;61.490;23.506;2023-10-09T09:46:34;5.80;99.90
3478;DHT22;37937;61.490;23.506;2023-10-09T09:57:56;6.10;99.90
3478;DHT22;37937;61.490;23.506;2023-10-09T10:00:26;6.20;99.90
3478;DHT22;37937;61.490;23.506;2023-10-09T10:03:06;6.30;99.90
3478;DHT22;37937;61.490;23.506;2023-10-09T10:08:38;6.30;99.90
3478;DHT22;37937;61.490;23.506;2023-10-09T10:14:28;6.30;99.90
3478;DHT22;37937;61.490;23.506;2023-10-09T10:20:17;6.50;99.90
3478;DHT22;37937;61.490;23.506;2023-10-09T10:26:20;6.70;99.90
3478;DHT22;37937;61.490;23.506;2023-10-09T10:31:54;6.80;99.90
3478;DHT22;37937;61.490;23.506;2023-10-09T10:34:20;6.90;99.90
3478;DHT22;37937;61.490;23.506;2023-10-09T10:36:55;6.90;99.90
3478;DHT22;37937;61.490;23.506;2023-10-09T10:39:32;6.90;99.90
3478;DHT22;37937;61.490;23.506;2023-10-09T10:45:01;6.70;99.90
3478;DHT22;37937;61.490;23.506;2023-10-09T10:47:27;6.60;99.90
3478;DHT22;37937;61.490;23.506;2023-10-09T10:50:08;6.70;99.90
3478;DHT22;37937;61.490;23.506;2023-10-09T10:55:55;6.50;99.90
3478;DHT22;37937;61.490;23.506;2023-10-09T10:58:22;6.60;99.90
3478;DHT22;37937;61.490;23.506;2023-10-09T11:01:03;6.60;99.90
3478;DHT22;37937;61.490;23.506;2023-10-09T11:03:40;6.60;99.90
3478;DHT22;37937;61.490;23.506;2023-10-09T11:06:27;6.40;99.90
3478;DHT22;37937;61.490;23.506;2023-10-09T11:09:09;6.40;99.90
3478;DHT22;37937;61.490;23.506;2023-10-09T11:11:50;6.30;99.90
3478;DHT22;37937;61.490;23.506;2023-10-09T11:14:20;6.40;99.90
3478;DHT22;37937;61.490;23.506;2023-10-09T11:16:52;6.20;99.90
3478;DHT22;37937;61.490;23.506;2023-10-09T11:22:22;6.10;99.90
3478;DHT22;37937;61.490;23.506;2023-10-09T11:24:56;6.20;99.90
3478;DHT22;37937;61.490;23.506;2023-10-09T11:27:46;6.30;99.90
3478;DHT22;37937;61.490;23.506;2023-10-09T11:30:16;6.30;99.90
3478;DHT22;37937;61.490;23.506;2023-10-09T11:33:03;6.30;99.90
3478;DHT22;37937;61.490;23.506;2023-10-09T11:38:35;6.30;99.90
3478;DHT22;37937;61.490;23.506;2023-10-09T11:41:16;6.20;99.90
3478;DHT22;37937;61.490;23.506;2023-10-09T11:43:52;6.10;99.90
3478;DHT22;37937;61.490;23.506;2023-10-09T11:46:18;6.00;99.90
3478;DHT22;37937;61.490;23.506;2023-10-09T11:49:06;6.00;99.90
3478;DHT22;37937;61.490;23.506;2023-10-09T11:51:50;6.10;99.90
3478;DHT22;37937;61.490;23.506;2023-10-09T11:57:43;6.10;99.90
3478;DHT22;37937;61.490;23.506;2023-10-09T12:00:09;6.10;99.90
3478;DHT22;37937;61.490;23.506;2023-10-09T12:03:12;6.10;99.90
3478;DHT22;37937;61.490;23.506;2023-10-09T12:05:42;6.10;99.90
3478;DHT22;37937;61.490;23.506;2023-10-09T12:08:11;6.20;99.90
3478;DHT22;37937;61.490;23.506;2023-10-09T12:16:56;6.40;99.90
3478;DHT22;37937;61.490;23.506;2023-10-09T12:19:35;6.40;99.90
3478;DHT22;37937;61.490;23.506;2023-10-09T12:22:01;6.50;99.90
3478;DHT22;37937;61.490;23.506;2023-10-09T12:24:41;6.40;99.90
3478;DHT22;37937;61.490;23.506;2023-10-09T12:27:13;6.40;99.90
3478;DHT22;37937;61.490;23.506;2023-10-09T12:29:50;6.40;99.90
3478;DHT22;37937;61.490;23.506;2023-10-09T12:32:28;6.30;99.90
3478;DHT22;37937;61.490;23.506;2023-10-09T12:34:54;6.30;99.90
3478;DHT22;37937;61.490;23.506;2023-10-09T12:37:27;6.20;99.90
3478;DHT22;37937;61.490;23.506;2023-10-09T12:40:02;6.20;99.90
3478;DHT22;37937;61.490;23.506;2023-10-09T12:42:55;6.30;99.90
3478;DHT22;37937;61.490;23.506;2023-10-09T12:45:36;6.30;99.90
3478;DHT22;37937;61.490;23.506;2023-10-09T12:50:57;6.20;99.90
3478;DHT22;37937;61.490;23.506;2023-10-09T12:56:32;6.30;99.90
3478;DHT22;37937;61.490;23.506;2023-10-09T12:59:01;6.40;99.90
3478;DHT22;37937;61.490;23.506;2023-10-09T13:01:30;6.40;99.90
3478;DHT22;37937;61.490;23.506;2023-10-09T13:04:00;6.40;99.90
3478;DHT22;37937;61.490;23.506;2023-10-09T13:06:38;6.40;99.90
3478;DHT22;37937;61.490;23.506;2023-10-09T13:12:12;6.50;99.90
3478;DHT22;37937;61.490;23.506;2023-10-09T13:14:49;6.40;99.90
3478;DHT22;37937;61.490;23.506;2023-10-09T13:17:15;6.30;99.90
3478;DHT22;37937;61.490;23.506;2023-10-09T13:19:47;6.20;99.90
3478;DHT22;37937;61.490;23.506;2023-10-09T13:22:24;6.10;99.90
3478;DHT22;37937;61.490;23.506;2023-10-09T13:24:50;6.10;99.90
3478;DHT22;37937;61.490;23.506;2023-10-09T13:27:27;6.00;99.90
3478;DHT22;37937;61.490;23.506;2023-10-09T13:30:08;5.90;99.90
3478;DHT22;37937;61.490;23.506;2023-10-09T13:32:46;5.90;99.90
3478;DHT22;37937;61.490;23.506;2023-10-09T13:35:29;5.90;99.90
3478;DHT22;37937;61.490;23.506;2023-10-09T13:38:13;5.90;99.90
3478;DHT22;37937;61.490;23.506;2023-10-09T13:40:40;5.90;99.90
3478;DHT22;37937;61.490;23.506;2023-10-09T13:43:11;5.90;99.90
3478;DHT22;37937;61.490;23.506;2023-10-09T13:48:45;5.90;99.90
3478;DHT22;37937;61.490;23.506;2023-10-09T13:54:14;5.90;99.90
3478;DHT22;37937;61.490;23.506;2023-10-09T13:57:09;5.90;99.90
3478;DHT22;37937;61.490;23.506;2023-10-09T13:59:39;5.80;99.90
3478;DHT22;37937;61.490;23.506;2023-10-09T14:02:08;5.80;99.90
3478;DHT22;37937;61.490;23.506;2023-10-09T14:04:49;5.80;99.90
3478;DHT22;37937;61.490;23.506;2023-10-09T14:07:24;5.80;99.90
3478;DHT22;37937;61.490;23.506;2023-10-09T14:10:06;5.70;99.90
3478;DHT22;37937;61.490;23.506;2023-10-09T14:12:54;5.70;99.90
3478;DHT22;37937;61.490;23.506;2023-10-09T14:15:22;5.80;99.90
3478;DHT22;37937;61.490;23.506;2023-10-09T14:17:51;5.70;99.90
3478;DHT22;37937;61.490;23.506;2023-10-09T14:20:21;5.70;99.90
3478;DHT22;37937;61.490;23.506;2023-10-09T14:23:03;5.70;99.90
3478;DHT22;37937;61.490;23.506;2023-10-09T14:28:44;5.70;99.90
3478;DHT22;37937;61.490;23.506;2023-10-09T14:31:09;5.60;99.90
3478;DHT22;37937;61.490;23.506;2023-10-09T14:33:38;5.60;99.90
3478;DHT22;37937;61.490;23.506;2023-10-09T14:36:05;5.60;99.90
3478;DHT22;37937;61.490;23.506;2023-10-09T14:38:33;5.50;99.90
3478;DHT22;37937;61.490;23.506;2023-10-09T14:41:03;5.50;99.90
3478;DHT22;37937;61.490;23.506;2023-10-09T14:43:48;5.50;99.90
3478;DHT22;37937;61.490;23.506;2023-10-09T14:46:16;5.50;99.90
3478;DHT22;37937;61.490;23.506;2023-10-09T14:48:46;5.40;99.90
3478;DHT22;37937;61.490;23.506;2023-10-09T14:51:12;5.30;99.90
3478;DHT22;37937;61.490;23.506;2023-10-09T14:53:38;5.30;99.90
3478;DHT22;37937;61.490;23.506;2023-10-09T14:56:14;5.20;99.90
3478;DHT22;37937;61.490;23.506;2023-10-09T14:58:41;5.20;99.90
3478;DHT22;37937;61.490;23.506;2023-10-09T15:07:13;4.90;99.90
3478;DHT22;37937;61.490;23.506;2023-10-09T15:10:01;4.90;99.90
3478;DHT22;37937;61.490;23.506;2023-10-09T15:15:30;4.60;99.90
3478;DHT22;37937;61.490;23.506;2023-10-09T15:21:01;4.30;99.90
3478;DHT22;37937;61.490;23.506;2023-10-09T15:23:30;4.20;99.90
3478;DHT22;37937;61.490;23.506;2023-10-09T15:29:00;4.10;99.90
3478;DHT22;37937;61.490;23.506;2023-10-09T15:31:44;4.00;99.90
3478;DHT22;37937;61.490;23.506;2023-10-09T15:34:23;3.90;99.90
3478;DHT22;37937;61.490;23.506;2023-10-09T15:39:53;3.80;99.90
3478;DHT22;37937;61.490;23.506;2023-10-09T15:42:28;3.70;99.90
3478;DHT22;37937;61.490;23.506;2023-10-09T15:44:57;3.70;99.90
3478;DHT22;37937;61.490;23.506;2023-10-09T15:47:41;3.70;99.90
3478;DHT22;37937;61.490;23.506;2023-10-09T15:50:21;3.60;99.90
3478;DHT22;37937;61.490;23.506;2023-10-09T15:55:53;3.30;99.90
3478;DHT22;37937;61.490;23.506;2023-10-09T15:58:34;3.20;99.90
3478;DHT22;37937;61.490;23.506;2023-10-09T16:01:15;3.10;99.90
3478;DHT22;37937;61.490;23.506;2023-10-09T16:03:43;3.00;99.90
3478;DHT22;37937;61.490;23.506;2023-10-09T16:06:13;3.00;99.90
3478;DHT22;37937;61.490;23.506;2023-10-09T16:08:56;2.80;99.90
3478;DHT22;37937;61.490;23.506;2023-10-09T16:14:28;2.70;99.90
3478;DHT22;37937;61.490;23.506;2023-10-09T16:16:56;2.60;99.90
3478;DHT22;37937;61.490;23.506;2023-10-09T16:22:55;2.60;99.90
3478;DHT22;37937;61.490;23.506;2023-10-09T16:25:43;2.50;99.90
3478;DHT22;37937;61.490;23.506;2023-10-09T16:28:36;2.40;99.90
3478;DHT22;37937;61.490;23.506;2023-10-09T16:31:24;2.30;99.90
3478;DHT22;37937;61.490;23.506;2023-10-09T16:34:20;2.30;99.90
3478;DHT22;37937;61.490;23.506;2023-10-09T16:45:41;2.00;99.90
3478;DHT22;37937;61.490;23.506;2023-10-09T16:48:15;2.00;99.90
3478;DHT22;37937;61.490;23.506;2023-10-09T16:50:47;2.00;99.90
3478;DHT22;37937;61.490;23.506;2023-10-09T16:53:31;1.90;99.90
3478;DHT22;37937;61.490;23.506;2023-10-09T16:56:00;1.80;99.90
3478;DHT22;37937;61.490;23.506;2023-10-09T16:58:26;1.80;99.90
3478;DHT22;37937;61.490;23.506;2023-10-09T17:01:07;1.80;99.90
3478;DHT22;37937;61.490;23.506;2023-10-09T17:06:37;1.60;99.90
3478;DHT22;37937;61.490;23.506;2023-10-09T17:09:13;1.60;99.90
3478;DHT22;37937;61.490;23.506;2023-10-09T17:11:42;1.60;99.90
3478;DHT22;37937;61.490;23.506;2023-10-09T17:16:52;1.60;99.90
3478;DHT22;37937;61.490;23.506;2023-10-09T17:19:29;1.50;99.90
3478;DHT22;37937;61.490;23.506;2023-10-09T17:25:13;1.40;99.90
3478;DHT22;37937;61.490;23.506;2023-10-09T17:27:51;1.40;99.90
3478;DHT22;37937;61.490;23.506;2023-10-09T17:30:33;1.30;99.90
3478;DHT22;37937;61.490;23.506;2023-10-09T17:33:08;1.30;99.90
3478;DHT22;37937;61.490;23.506;2023-10-09T17:38:55;1.20;99.90
3478;DHT22;37937;61.490;23.506;2023-10-09T17:41:28;1.00;99.90
3478;DHT22;37937;61.490;23.506;2023-10-09T17:44:12;1.00;99.90
3478;DHT22;37937;61.490;23.506;2023-10-09T17:46:55;0.90;99.90
3478;DHT22;37937;61.490;23.506;2023-10-09T17:49:30;0.90;99.90
3478;DHT22;37937;61.490;23.506;2023-10-09T17:51:56;0.90;99.90
3478;DHT22;37937;61.490;23.506;2023-10-09T17:54:40;0.90;99.90
3478;DHT22;37937;61.490;23.506;2023-10-09T17:57:36;0.90;99.90
3478;DHT22;37937;61.490;23.506;2023-10-09T18:03:11;0.80;99.90
3478;DHT22;37937;61.490;23.506;2023-10-09T18:08:47;0.80;99.90
3478;DHT22;37937;61.490;23.506;2023-10-09T18:11:13;0.70;99.90
3478;DHT22;37937;61.490;23.506;2023-10-09T18:13:58;0.70;99.90
3478;DHT22;37937;61.490;23.506;2023-10-09T18:19:34;0.60;99.90
3478;DHT22;37937;61.490;23.506;2023-10-09T18:22:16;0.60;99.90
3478;DHT22;37937;61.490;23.506;2023-10-09T18:24:54;0.60;99.90
3478;DHT22;37937;61.490;23.506;2023-10-09T18:36:10;0.30;99.90
3478;DHT22;37937;61.490;23.506;2023-10-09T18:38:39;0.30;99.90
3478;DHT22;37937;61.490;23.506;2023-10-09T18:41:06;0.30;99.90
3478;DHT22;37937;61.490;23.506;2023-10-09T18:46:33;0.30;99.90
3478;DHT22;37937;61.490;23.506;2023-10-09T18:55:24;0.30;99.90
3478;DHT22;37937;61.490;23.506;2023-10-09T19:00:49;0.30;99.90
3478;DHT22;37937;61.490;23.506;2023-10-09T19:03:17;0.30;99.90
3478;DHT22;37937;61.490;23.506;2023-10-09T19:06:04;0.30;99.90
3478;DHT22;37937;61.490;23.506;2023-10-09T19:08:36;0.30;99.90
3478;DHT22;37937;61.490;23.506;2023-10-09T19:17:08;0.10;99.90
3478;DHT22;37937;61.490;23.506;2023-10-09T19:19:58;0.10;99.90
3478;DHT22;37937;61.490;23.506;2023-10-09T19:22:24;0.10;99.90
3478;DHT22;37937;61.490;23.506;2023-10-09T19:24:55;0.10;99.90
3478;DHT22;37937;61.490;23.506;2023-10-09T19:30:36;0.10;99.90
3478;DHT22;37937;61.490;23.506;2023-10-09T19:36:39;0.10;99.90
3478;DHT22;37937;61.490;23.506;2023-10-09T19:39:42;0.10;99.90
3478;DHT22;37937;61.490;23.506;2023-10-09T19:48:29;-0.10;99.90
3478;DHT22;37937;61.490;23.506;2023-10-09T19:51:05;-0.10;99.90
3478;DHT22;37937;61.490;23.506;2023-10-09T19:53:40;-0.10;99.90
3478;DHT22;37937;61.490;23.506;2023-10-09T19:56:38;-0.10;99.90
3478;DHT22;37937;61.490;23.506;2023-10-09T19:59:19;-0.20;99.90
3478;DHT22;37937;61.490;23.506;2023-10-09T20:01:45;-0.20;99.90
3478;DHT22;37937;61.490;23.506;2023-10-09T20:04:25;-0.30;99.90
3478;DHT22;37937;61.490;23.506;2023-10-09T20:07:16;-0.30;99.90